sensor_id;sensor_type;location;lat;lon;timestamp;temperature;humidity
67186;HTU21D;54116;53.518;49.398;2024-01-27T00:01:45;-17.96;118.99
67186;HTU21D;54116;53.518;49.398;2024-01-27T00:04:11;-17.62;118.99
67186;HTU21D;54116;53.518;49.398;2024-01-27T00:06:38;-17.81;118.99
67186;HTU21D;54116;53.518;49.398;2024-01-27T00:09:04;-17.78;118.99
67186;HTU21D;54116;53.518;49.398;2024-01-27T00:11:32;-17.85;118.99
67186;HTU21D;54116;53.518;49.398;2024-01-27T00:13:58;-17.87;118.99
67186;HTU21D;54116;53.518;49.398;2024-01-27T00:16:25;-17.88;118.99
67186;HTU21D;54116;53.518;49.398;2024-01-27T00:18:51;-17.96;118.99
67186;HTU21D;54116;53.518;49.398;2024-01-27T00:21:17;-17.98;118.99
67186;HTU21D;54116;53.518;49.398;2024-01-27T00:23:43;-17.90;118.99
67186;HTU21D;54116;53.518;49.398;2024-01-27T00:26:09;-17.94;118.99
67186;HTU21D;54116;53.518;49.398;2024-01-27T00:28:36;-17.86;118.99
67186;HTU21D;54116;53.518;49.398;2024-01-27T00:31:03;-17.81;118.99
67186;HTU21D;54116;53.518;49.398;2024-01-27T00:33:29;-17.65;118.99
67186;HTU21D;54116;53.518;49.398;2024-01-27T00:35:55;-17.63;118.99
67186;HTU21D;54116;53.518;49.398;2024-01-27T00:38:21;-17.47;118.99
67186;HTU21D;54116;53.518;49.398;2024-01-27T00:40:48;-17.39;118.99
67186;HTU21D;54116;53.518;49.398;2024-01-27T00:43:14;-17.51;118.99
67186;HTU21D;54116;53.518;49.398;2024-01-27T00:45:40;-17.51;118.99
67186;HTU21D;54116;53.518;49.398;2024-01-27T00:48:07;-17.32;118.99
67186;HTU21D;54116;53.518;49.398;2024-01-27T00:50:34;-17.36;118.99
67186;HTU21D;54116;53.518;49.398;2024-01-27T00:53:01;-17.43;118.99
67186;HTU21D;54116;53.518;49.398;2024-01-27T00:55:28;-17.33;118.99
67186;HTU21D;54116;53.518;49.398;2024-01-27T00:57:54;-17.32;118.99
67186;HTU21D;54116;53.518;49.398;2024-01-27T01:00:20;-17.16;118.99
67186;HTU21D;54116;53.518;49.398;2024-01-27T01:02:47;-17.29;118.99
67186;HTU21D;54116;53.518;49.398;2024-01-27T01:05:13;-17.32;118.99
67186;HTU21D;54116;53.518;49.398;2024-01-27T01:07:40;-17.47;118.99
67186;HTU21D;54116;53.518;49.398;2024-01-27T01:10:07;-17.21;118.99
67186;HTU21D;54116;53.518;49.398;2024-01-27T01:12:35;-17.28;118.99
67186;HTU21D;54116;53.518;49.398;2024-01-27T01:15:01;-17.12;118.99
67186;HTU21D;54116;53.518;49.398;2024-01-27T01:17:28;-17.09;118.99
67186;HTU21D;54116;53.518;49.398;2024-01-27T01:19:54;-17.30;118.99
67186;HTU21D;54116;53.518;49.398;2024-01-27T01:22:21;-17.16;118.99
67186;HTU21D;54116;53.518;49.398;2024-01-27T01:24:47;-17.18;118.99
67186;HTU21D;54116;53.518;49.398;2024-01-27T01:27:13;-17.46;118.99
67186;HTU21D;54116;53.518;49.398;2024-01-27T01:29:40;-17.50;118.99
67186;HTU21D;54116;53.518;49.398;2024-01-27T01:32:06;-17.33;118.99
67186;HTU21D;54116;53.518;49.398;2024-01-27T01:34:32;-17.58;118.99
67186;HTU21D;54116;53.518;49.398;2024-01-27T01:37:00;-17.47;118.99
67186;HTU21D;54116;53.518;49.398;2024-01-27T01:39:28;-17.45;118.99
67186;HTU21D;54116;53.518;49.398;2024-01-27T01:41:55;-17.47;118.99
67186;HTU21D;54116;53.518;49.398;2024-01-27T01:44:21;-17.45;118.99
67186;HTU21D;54116;53.518;49.398;2024-01-27T01:46:47;-17.44;118.99
67186;HTU21D;54116;53.518;49.398;2024-01-27T01:49:13;-17.44;118.99
67186;HTU21D;54116;53.518;49.398;2024-01-27T01:51:40;-17.44;118.99
67186;HTU21D;54116;53.518;49.398;2024-01-27T01:54:06;-17.55;118.99
67186;HTU21D;54116;53.518;49.398;2024-01-27T01:56:34;-17.48;118.99
67186;HTU21D;54116;53.518;49.398;2024-01-27T01:59:00;-17.48;118.99
67186;HTU21D;54116;53.518;49.398;2024-01-27T02:01:26;-17.37;118.99
67186;HTU21D;54116;53.518;49.398;2024-01-27T02:03:53;-17.37;118.99
67186;HTU21D;54116;53.518;49.398;2024-01-27T02:06:20;-17.33;118.99
67186;HTU21D;54116;53.518;49.398;2024-01-27T02:08:47;-17.41;118.99
67186;HTU21D;54116;53.518;49.398;2024-01-27T02:11:13;-17.22;118.99
67186;HTU21D;54116;53.518;49.398;2024-01-27T02:13:39;-17.55;118.99
67186;HTU21D;54116;53.518;49.398;2024-01-27T02:16:06;-17.40;118.99
67186;HTU21D;54116;53.518;49.398;2024-01-27T02:18:33;-17.37;118.99
67186;HTU21D;54116;53.518;49.398;2024-01-27T02:20:59;-17.31;118.99
67186;HTU21D;54116;53.518;49.398;2024-01-27T02:23:25;-17.35;118.99
67186;HTU21D;54116;53.518;49.398;2024-01-27T02:25:52;-17.39;118.99
67186;HTU21D;54116;53.518;49.398;2024-01-27T02:28:18;-17.62;118.99
67186;HTU21D;54116;53.518;49.398;2024-01-27T02:30:44;-17.55;118.99
67186;HTU21D;54116;53.518;49.398;2024-01-27T02:33:11;-17.30;118.99
67186;HTU21D;54116;53.518;49.398;2024-01-27T02:35:37;-17.39;118.99
67186;HTU21D;54116;53.518;49.398;2024-01-27T02:38:04;-17.35;118.99
67186;HTU21D;54116;53.518;49.398;2024-01-27T02:40:30;-17.40;118.99
67186;HTU21D;54116;53.518;49.398;2024-01-27T02:42:56;-17.25;118.99
67186;HTU21D;54116;53.518;49.398;2024-01-27T02:45:22;-17.33;118.99
67186;HTU21D;54116;53.518;49.398;2024-01-27T02:47:49;-17.37;118.99
67186;HTU21D;54116;53.518;49.398;2024-01-27T02:50:15;-17.50;118.99
67186;HTU21D;54116;53.518;49.398;2024-01-27T02:52:41;-17.50;118.99
67186;HTU21D;54116;53.518;49.398;2024-01-27T02:55:07;-17.66;118.99
67186;HTU21D;54116;53.518;49.398;2024-01-27T02:57:33;-17.62;118.99
67186;HTU21D;54116;53.518;49.398;2024-01-27T03:00:00;-17.43;118.99
67186;HTU21D;54116;53.518;49.398;2024-01-27T03:02:26;-17.65;118.99
67186;HTU21D;54116;53.518;49.398;2024-01-27T03:04:52;-17.59;118.99
67186;HTU21D;54116;53.518;49.398;2024-01-27T03:07:18;-17.56;118.99
67186;HTU21D;54116;53.518;49.398;2024-01-27T03:09:44;-17.51;118.99
67186;HTU21D;54116;53.518;49.398;2024-01-27T03:12:10;-17.62;118.99
67186;HTU21D;54116;53.518;49.398;2024-01-27T03:14:37;-17.54;118.99
67186;HTU21D;54116;53.518;49.398;2024-01-27T03:17:06;-17.52;118.99
67186;HTU21D;54116;53.518;49.398;2024-01-27T03:19:33;-17.41;118.99
67186;HTU21D;54116;53.518;49.398;2024-01-27T03:21:59;-17.52;118.99
67186;HTU21D;54116;53.518;49.398;2024-01-27T03:24:25;-17.40;118.99
67186;HTU21D;54116;53.518;49.398;2024-01-27T03:26:51;-17.40;118.99
67186;HTU21D;54116;53.518;49.398;2024-01-27T03:29:17;-17.44;118.99
67186;HTU21D;54116;53.518;49.398;2024-01-27T03:31:43;-17.50;118.99
67186;HTU21D;54116;53.518;49.398;2024-01-27T03:34:09;-17.36;118.99
67186;HTU21D;54116;53.518;49.398;2024-01-27T03:36:35;-17.30;118.99
67186;HTU21D;54116;53.518;49.398;2024-01-27T03:39:01;-17.29;118.99
67186;HTU21D;54116;53.518;49.398;2024-01-27T03:41:29;-17.26;118.99
67186;HTU21D;54116;53.518;49.398;2024-01-27T03:43:55;-17.27;118.99
67186;HTU21D;54116;53.518;49.398;2024-01-27T03:46:21;-17.00;118.99
67186;HTU21D;54116;53.518;49.398;2024-01-27T03:48:47;-16.99;118.99
67186;HTU21D;54116;53.518;49.398;2024-01-27T03:51:14;-17.03;118.99
67186;HTU21D;54116;53.518;49.398;2024-01-27T03:53:40;-17.03;118.99
67186;HTU21D;54116;53.518;49.398;2024-01-27T03:56:06;-17.07;118.99
67186;HTU21D;54116;53.518;49.398;2024-01-27T03:58:33;-17.10;118.99
67186;HTU21D;54116;53.518;49.398;2024-01-27T04:00:59;-16.99;118.99
67186;HTU21D;54116;53.518;49.398;2024-01-27T04:03:25;-16.93;118.99
67186;HTU21D;54116;53.518;49.398;2024-01-27T04:05:52;-16.94;118.99
67186;HTU21D;54116;53.518;49.398;2024-01-27T04:08:18;-16.84;118.99
67186;HTU21D;54116;53.518;49.398;2024-01-27T04:10:44;-16.87;118.99
67186;HTU21D;54116;53.518;49.398;2024-01-27T04:13:11;-16.88;118.99
67186;HTU21D;54116;53.518;49.398;2024-01-27T04:15:37;-16.86;118.99
67186;HTU21D;54116;53.518;49.398;2024-01-27T04:18:05;-16.81;118.99
67186;HTU21D;54116;53.518;49.398;2024-01-27T04:20:35;-16.94;118.99
67186;HTU21D;54116;53.518;49.398;2024-01-27T04:23:02;-16.84;118.99
67186;HTU21D;54116;53.518;49.398;2024-01-27T04:25:29;-16.73;118.99
67186;HTU21D;54116;53.518;49.398;2024-01-27T04:27:55;-17.24;118.99
67186;HTU21D;54116;53.518;49.398;2024-01-27T04:30:22;-17.18;118.99
67186;HTU21D;54116;53.518;49.398;2024-01-27T04:32:48;-17.25;118.99
67186;HTU21D;54116;53.518;49.398;2024-01-27T04:35:18;-17.22;118.99
67186;HTU21D;54116;53.518;49.398;2024-01-27T04:37:44;-16.89;118.99
67186;HTU21D;54116;53.518;49.398;2024-01-27T04:40:11;-16.91;118.99
67186;HTU21D;54116;53.518;49.398;2024-01-27T04:42:38;-16.97;118.99
67186;HTU21D;54116;53.518;49.398;2024-01-27T04:45:06;-16.93;118.99
67186;HTU21D;54116;53.518;49.398;2024-01-27T04:47:34;-17.02;118.99
67186;HTU21D;54116;53.518;49.398;2024-01-27T04:50:00;-17.26;118.99
67186;HTU21D;54116;53.518;49.398;2024-01-27T04:52:27;-17.55;118.99
67186;HTU21D;54116;53.518;49.398;2024-01-27T04:54:53;-17.35;118.99
67186;HTU21D;54116;53.518;49.398;2024-01-27T04:57:19;-17.04;118.99
67186;HTU21D;54116;53.518;49.398;2024-01-27T04:59:45;-16.88;118.99
67186;HTU21D;54116;53.518;49.398;2024-01-27T05:02:13;-16.96;118.99
67186;HTU21D;54116;53.518;49.398;2024-01-27T05:04:39;-16.85;118.99
67186;HTU21D;54116;53.518;49.398;2024-01-27T05:07:05;-16.74;118.99
67186;HTU21D;54116;53.518;49.398;2024-01-27T05:09:34;-16.86;118.99
67186;HTU21D;54116;53.518;49.398;2024-01-27T05:12:00;-16.91;118.99
67186;HTU21D;54116;53.518;49.398;2024-01-27T05:14:27;-16.91;118.99
67186;HTU21D;54116;53.518;49.398;2024-01-27T05:16:53;-16.88;118.99
67186;HTU21D;54116;53.518;49.398;2024-01-27T05:19:21;-16.76;118.99
67186;HTU21D;54116;53.518;49.398;2024-01-27T05:21:47;-16.68;118.99
67186;HTU21D;54116;53.518;49.398;2024-01-27T05:24:13;-16.68;118.99
67186;HTU21D;54116;53.518;49.398;2024-01-27T05:26:40;-16.61;118.99
67186;HTU21D;54116;53.518;49.398;2024-01-27T05:29:07;-16.68;118.99
67186;HTU21D;54116;53.518;49.398;2024-01-27T05:31:34;-16.65;118.99
67186;HTU21D;54116;53.518;49.398;2024-01-27T05:34:01;-16.59;118.99
67186;HTU21D;54116;53.518;49.398;2024-01-27T05:36:27;-16.49;118.99
67186;HTU21D;54116;53.518;49.398;2024-01-27T05:38:54;-16.44;118.99
67186;HTU21D;54116;53.518;49.398;2024-01-27T05:41:20;-16.43;118.99
67186;HTU21D;54116;53.518;49.398;2024-01-27T05:43:46;-16.39;118.99
67186;HTU21D;54116;53.518;49.398;2024-01-27T05:46:13;-16.59;118.99
67186;HTU21D;54116;53.518;49.398;2024-01-27T05:48:39;-16.71;118.99
67186;HTU21D;54116;53.518;49.398;2024-01-27T05:51:05;-16.53;118.99
67186;HTU21D;54116;53.518;49.398;2024-01-27T05:53:31;-16.49;118.99
67186;HTU21D;54116;53.518;49.398;2024-01-27T05:55:57;-16.36;118.99
67186;HTU21D;54116;53.518;49.398;2024-01-27T05:58:23;-16.48;118.99
67186;HTU21D;54116;53.518;49.398;2024-01-27T06:00:49;-16.13;118.99
67186;HTU21D;54116;53.518;49.398;2024-01-27T06:03:16;-16.48;118.99
67186;HTU21D;54116;53.518;49.398;2024-01-27T06:05:43;-16.65;118.99
67186;HTU21D;54116;53.518;49.398;2024-01-27T06:08:09;-16.53;118.99
67186;HTU21D;54116;53.518;49.398;2024-01-27T06:10:35;-16.36;118.99
67186;HTU21D;54116;53.518;49.398;2024-01-27T06:13:05;-16.32;118.99
67186;HTU21D;54116;53.518;49.398;2024-01-27T06:15:31;-15.80;118.99
67186;HTU21D;54116;53.518;49.398;2024-01-27T06:17:57;-16.04;118.99
67186;HTU21D;54116;53.518;49.398;2024-01-27T06:20:24;-16.03;118.99
67186;HTU21D;54116;53.518;49.398;2024-01-27T06:22:50;-16.11;118.99
67186;HTU21D;54116;53.518;49.398;2024-01-27T06:25:19;-16.00;118.99
67186;HTU21D;54116;53.518;49.398;2024-01-27T06:27:45;-15.73;118.99
67186;HTU21D;54116;53.518;49.398;2024-01-27T06:30:11;-15.60;118.99
67186;HTU21D;54116;53.518;49.398;2024-01-27T06:32:37;-15.82;118.99
67186;HTU21D;54116;53.518;49.398;2024-01-27T06:35:04;-15.80;118.99
67186;HTU21D;54116;53.518;49.398;2024-01-27T06:37:30;-15.99;118.99
67186;HTU21D;54116;53.518;49.398;2024-01-27T06:39:56;-15.80;118.99
67186;HTU21D;54116;53.518;49.398;2024-01-27T06:42:22;-15.72;118.99
67186;HTU21D;54116;53.518;49.398;2024-01-27T06:44:48;-15.91;118.99
67186;HTU21D;54116;53.518;49.398;2024-01-27T06:47:15;-15.81;118.99
67186;HTU21D;54116;53.518;49.398;2024-01-27T06:49:41;-15.75;118.99
67186;HTU21D;54116;53.518;49.398;2024-01-27T06:52:07;-15.81;118.99
67186;HTU21D;54116;53.518;49.398;2024-01-27T06:54:33;-15.51;118.99
67186;HTU21D;54116;53.518;49.398;2024-01-27T06:57:00;-15.28;118.99
67186;HTU21D;54116;53.518;49.398;2024-01-27T06:59:28;-15.19;118.99
67186;HTU21D;54116;53.518;49.398;2024-01-27T07:01:55;-15.14;118.99
67186;HTU21D;54116;53.518;49.398;2024-01-27T07:04:22;-15.22;118.99
67186;HTU21D;54116;53.518;49.398;2024-01-27T07:06:48;-15.05;118.99
67186;HTU21D;54116;53.518;49.398;2024-01-27T07:09:14;-15.14;118.99
67186;HTU21D;54116;53.518;49.398;2024-01-27T07:11:40;-15.10;118.99
67186;HTU21D;54116;53.518;49.398;2024-01-27T07:14:06;-15.00;118.99
67186;HTU21D;54116;53.518;49.398;2024-01-27T07:16:33;-14.95;118.99
67186;HTU21D;54116;53.518;49.398;2024-01-27T07:19:00;-15.01;118.99
67186;HTU21D;54116;53.518;49.398;2024-01-27T07:21:26;-14.75;118.99
67186;HTU21D;54116;53.518;49.398;2024-01-27T07:23:54;-14.93;118.99
67186;HTU21D;54116;53.518;49.398;2024-01-27T07:26:20;-14.90;118.99
67186;HTU21D;54116;53.518;49.398;2024-01-27T07:28:48;-14.84;118.99
67186;HTU21D;54116;53.518;49.398;2024-01-27T07:31:14;-14.69;118.99
67186;HTU21D;54116;53.518;49.398;2024-01-27T07:33:41;-14.50;118.99
67186;HTU21D;54116;53.518;49.398;2024-01-27T07:36:07;-14.41;118.99
67186;HTU21D;54116;53.518;49.398;2024-01-27T07:38:33;-14.32;118.99
67186;HTU21D;54116;53.518;49.398;2024-01-27T07:40:59;-14.39;118.99
67186;HTU21D;54116;53.518;49.398;2024-01-27T07:43:25;-14.44;118.99
67186;HTU21D;54116;53.518;49.398;2024-01-27T07:45:51;-14.50;118.99
67186;HTU21D;54116;53.518;49.398;2024-01-27T07:48:19;-14.27;118.99
67186;HTU21D;54116;53.518;49.398;2024-01-27T07:50:45;-14.02;118.99
67186;HTU21D;54116;53.518;49.398;2024-01-27T07:53:15;-14.12;118.99
67186;HTU21D;54116;53.518;49.398;2024-01-27T07:55:41;-14.16;118.99
67186;HTU21D;54116;53.518;49.398;2024-01-27T07:58:07;-14.27;118.99
67186;HTU21D;54116;53.518;49.398;2024-01-27T08:00:33;-13.92;118.99
67186;HTU21D;54116;53.518;49.398;2024-01-27T08:02:59;-13.93;118.99
67186;HTU21D;54116;53.518;49.398;2024-01-27T08:05:25;-13.78;118.99
67186;HTU21D;54116;53.518;49.398;2024-01-27T08:07:51;-13.61;118.99
67186;HTU21D;54116;53.518;49.398;2024-01-27T08:10:18;-13.61;118.99
67186;HTU21D;54116;53.518;49.398;2024-01-27T08:12:44;-13.65;118.99
67186;HTU21D;54116;53.518;49.398;2024-01-27T08:15:11;-13.60;118.99
67186;HTU21D;54116;53.518;49.398;2024-01-27T08:17:37;-13.44;118.99
67186;HTU21D;54116;53.518;49.398;2024-01-27T08:20:03;-13.28;118.99
67186;HTU21D;54116;53.518;49.398;2024-01-27T08:22:29;-13.22;118.99
67186;HTU21D;54116;53.518;49.398;2024-01-27T08:24:56;-12.96;118.99
67186;HTU21D;54116;53.518;49.398;2024-01-27T08:27:22;-13.18;118.99
67186;HTU21D;54116;53.518;49.398;2024-01-27T08:29:48;-13.34;118.99
67186;HTU21D;54116;53.518;49.398;2024-01-27T08:32:14;-13.36;118.99
67186;HTU21D;54116;53.518;49.398;2024-01-27T08:34:40;-13.18;118.99
67186;HTU21D;54116;53.518;49.398;2024-01-27T08:37:19;-13.53;118.99
67186;HTU21D;54116;53.518;49.398;2024-01-27T08:39:46;-13.18;118.99
67186;HTU21D;54116;53.518;49.398;2024-01-27T08:42:12;-13.30;118.99
67186;HTU21D;54116;53.518;49.398;2024-01-27T08:44:39;-13.33;118.99
67186;HTU21D;54116;53.518;49.398;2024-01-27T08:47:06;-13.10;118.99
67186;HTU21D;54116;53.518;49.398;2024-01-27T08:49:32;-13.11;118.99
67186;HTU21D;54116;53.518;49.398;2024-01-27T08:51:58;-13.19;118.99
67186;HTU21D;54116;53.518;49.398;2024-01-27T08:54:24;-13.07;118.99
67186;HTU21D;54116;53.518;49.398;2024-01-27T08:56:50;-13.27;118.99
67186;HTU21D;54116;53.518;49.398;2024-01-27T08:59:16;-13.17;118.99
67186;HTU21D;54116;53.518;49.398;2024-01-27T09:01:42;-13.44;118.99
67186;HTU21D;54116;53.518;49.398;2024-01-27T09:04:08;-14.08;118.99
67186;HTU21D;54116;53.518;49.398;2024-01-27T09:06:35;-13.61;118.99
67186;HTU21D;54116;53.518;49.398;2024-01-27T09:09:02;-13.60;118.99
67186;HTU21D;54116;53.518;49.398;2024-01-27T09:11:28;-13.65;118.99
67186;HTU21D;54116;53.518;49.398;2024-01-27T09:13:56;-14.78;118.99
67186;HTU21D;54116;53.518;49.398;2024-01-27T09:16:22;-13.92;118.99
67186;HTU21D;54116;53.518;49.398;2024-01-27T09:18:49;-14.51;118.99
67186;HTU21D;54116;53.518;49.398;2024-01-27T09:21:19;-14.30;118.99
67186;HTU21D;54116;53.518;49.398;2024-01-27T09:23:48;-13.78;118.99
67186;HTU21D;54116;53.518;49.398;2024-01-27T09:26:14;-13.56;118.99
67186;HTU21D;54116;53.518;49.398;2024-01-27T09:28:44;-14.66;118.99
67186;HTU21D;54116;53.518;49.398;2024-01-27T09:31:12;-14.31;118.99
67186;HTU21D;54116;53.518;49.398;2024-01-27T09:33:39;-14.22;118.99
67186;HTU21D;54116;53.518;49.398;2024-01-27T09:36:05;-13.11;118.99
67186;HTU21D;54116;53.518;49.398;2024-01-27T09:38:31;-13.14;118.99
67186;HTU21D;54116;53.518;49.398;2024-01-27T09:40:57;-13.24;118.99
67186;HTU21D;54116;53.518;49.398;2024-01-27T09:43:25;-13.36;118.99
67186;HTU21D;54116;53.518;49.398;2024-01-27T09:45:52;-13.14;118.99
67186;HTU21D;54116;53.518;49.398;2024-01-27T09:48:18;-13.80;118.99
67186;HTU21D;54116;53.518;49.398;2024-01-27T09:50:45;-14.44;118.99
67186;HTU21D;54116;53.518;49.398;2024-01-27T09:53:14;-13.83;118.99
67186;HTU21D;54116;53.518;49.398;2024-01-27T09:55:40;-14.03;118.99
67186;HTU21D;54116;53.518;49.398;2024-01-27T09:58:06;-13.92;118.99
67186;HTU21D;54116;53.518;49.398;2024-01-27T10:00:35;-14.43;118.99
67186;HTU21D;54116;53.518;49.398;2024-01-27T10:03:03;-14.05;118.99
67186;HTU21D;54116;53.518;49.398;2024-01-27T10:05:32;-13.84;118.99
67186;HTU21D;54116;53.518;49.398;2024-01-27T10:07:58;-14.13;118.99
67186;HTU21D;54116;53.518;49.398;2024-01-27T10:10:24;-14.16;118.99
67186;HTU21D;54116;53.518;49.398;2024-01-27T10:12:52;-13.07;118.99
67186;HTU21D;54116;53.518;49.398;2024-01-27T10:15:24;-12.84;118.99
67186;HTU21D;54116;53.518;49.398;2024-01-27T10:17:52;-13.09;118.99
67186;HTU21D;54116;53.518;49.398;2024-01-27T10:20:18;-12.92;118.99
67186;HTU21D;54116;53.518;49.398;2024-01-27T10:22:45;-13.18;118.99
67186;HTU21D;54116;53.518;49.398;2024-01-27T10:25:11;-13.84;118.99
67186;HTU21D;54116;53.518;49.398;2024-01-27T10:27:37;-14.25;118.99
67186;HTU21D;54116;53.518;49.398;2024-01-27T10:30:05;-14.35;118.99
67186;HTU21D;54116;53.518;49.398;2024-01-27T10:32:33;-13.90;118.99
67186;HTU21D;54116;53.518;49.398;2024-01-27T10:35:06;-13.73;118.99
67186;HTU21D;54116;53.518;49.398;2024-01-27T10:37:34;-13.45;118.99
67186;HTU21D;54116;53.518;49.398;2024-01-27T10:40:01;-13.75;118.99
67186;HTU21D;54116;53.518;49.398;2024-01-27T10:42:29;-13.96;118.99
67186;HTU21D;54116;53.518;49.398;2024-01-27T10:44:59;-13.84;118.99
67186;HTU21D;54116;53.518;49.398;2024-01-27T10:47:29;-14.08;118.99
67186;HTU21D;54116;53.518;49.398;2024-01-27T10:49:58;-14.06;118.99
67186;HTU21D;54116;53.518;49.398;2024-01-27T10:52:29;-13.72;118.99
67186;HTU21D;54116;53.518;49.398;2024-01-27T10:55:04;-13.71;118.99
67186;HTU21D;54116;53.518;49.398;2024-01-27T10:57:33;-13.63;118.99
67186;HTU21D;54116;53.518;49.398;2024-01-27T11:00:01;-13.55;118.99
67186;HTU21D;54116;53.518;49.398;2024-01-27T11:02:32;-12.68;118.99
67186;HTU21D;54116;53.518;49.398;2024-01-27T11:05:03;-12.40;118.99
67186;HTU21D;54116;53.518;49.398;2024-01-27T11:07:34;-12.83;118.99
67186;HTU21D;54116;53.518;49.398;2024-01-27T11:10:01;-13.41;118.99
67186;HTU21D;54116;53.518;49.398;2024-01-27T11:12:28;-13.18;118.99
67186;HTU21D;54116;53.518;49.398;2024-01-27T11:14:55;-13.40;118.99
67186;HTU21D;54116;53.518;49.398;2024-01-27T11:17:24;-13.65;118.99
67186;HTU21D;54116;53.518;49.398;2024-01-27T11:19:51;-13.46;118.99
67186;HTU21D;54116;53.518;49.398;2024-01-27T11:22:24;-13.07;118.99
67186;HTU21D;54116;53.518;49.398;2024-01-27T11:25:17;-13.42;118.99
67186;HTU21D;54116;53.518;49.398;2024-01-27T11:27:45;-13.70;118.99
67186;HTU21D;54116;53.518;49.398;2024-01-27T11:30:30;-13.52;118.99
67186;HTU21D;54116;53.518;49.398;2024-01-27T11:33:03;-13.46;118.99
67186;HTU21D;54116;53.518;49.398;2024-01-27T11:35:30;-13.76;118.99
67186;HTU21D;54116;53.518;49.398;2024-01-27T11:37:57;-14.05;118.99
67186;HTU21D;54116;53.518;49.398;2024-01-27T11:40:23;-13.38;118.99
67186;HTU21D;54116;53.518;49.398;2024-01-27T11:43:00;-13.63;118.99
67186;HTU21D;54116;53.518;49.398;2024-01-27T11:45:28;-13.81;118.99
67186;HTU21D;54116;53.518;49.398;2024-01-27T11:48:00;-14.20;118.99
67186;HTU21D;54116;53.518;49.398;2024-01-27T11:50:26;-14.07;118.99
67186;HTU21D;54116;53.518;49.398;2024-01-27T11:52:54;-13.54;118.99
67186;HTU21D;54116;53.518;49.398;2024-01-27T11:55:20;-14.36;118.99
67186;HTU21D;54116;53.518;49.398;2024-01-27T11:57:46;-14.61;118.99
67186;HTU21D;54116;53.518;49.398;2024-01-27T12:00:13;-14.67;118.99
67186;HTU21D;54116;53.518;49.398;2024-01-27T12:02:40;-14.58;118.99
67186;HTU21D;54116;53.518;49.398;2024-01-27T12:05:08;-14.75;118.99
67186;HTU21D;54116;53.518;49.398;2024-01-27T12:07:36;-14.56;118.99
67186;HTU21D;54116;53.518;49.398;2024-01-27T12:10:03;-14.52;118.99
67186;HTU21D;54116;53.518;49.398;2024-01-27T12:12:29;-13.49;118.99
67186;HTU21D;54116;53.518;49.398;2024-01-27T12:14:56;-13.80;118.99
67186;HTU21D;54116;53.518;49.398;2024-01-27T12:17:22;-14.70;118.99
67186;HTU21D;54116;53.518;49.398;2024-01-27T12:19:51;-14.12;118.99
67186;HTU21D;54116;53.518;49.398;2024-01-27T12:22:27;-14.71;118.99
67186;HTU21D;54116;53.518;49.398;2024-01-27T12:25:14;-14.47;118.99
67186;HTU21D;54116;53.518;49.398;2024-01-27T12:27:40;-13.85;118.99
67186;HTU21D;54116;53.518;49.398;2024-01-27T12:30:08;-14.75;118.99
67186;HTU21D;54116;53.518;49.398;2024-01-27T12:32:34;-13.71;118.99
67186;HTU21D;54116;53.518;49.398;2024-01-27T12:35:04;-14.46;118.99
67186;HTU21D;54116;53.518;49.398;2024-01-27T12:37:31;-14.82;118.99
67186;HTU21D;54116;53.518;49.398;2024-01-27T12:39:57;-14.65;118.99
67186;HTU21D;54116;53.518;49.398;2024-01-27T12:42:23;-15.23;118.99
67186;HTU21D;54116;53.518;49.398;2024-01-27T12:44:50;-15.03;118.99
67186;HTU21D;54116;53.518;49.398;2024-01-27T12:47:16;-15.40;118.99
67186;HTU21D;54116;53.518;49.398;2024-01-27T12:49:43;-14.84;118.99
67186;HTU21D;54116;53.518;49.398;2024-01-27T12:52:10;-15.40;118.99
67186;HTU21D;54116;53.518;49.398;2024-01-27T12:54:36;-15.75;118.99
67186;HTU21D;54116;53.518;49.398;2024-01-27T12:57:02;-14.57;118.99
67186;HTU21D;54116;53.518;49.398;2024-01-27T12:59:28;-15.55;118.99
67186;HTU21D;54116;53.518;49.398;2024-01-27T13:01:54;-14.94;118.99
67186;HTU21D;54116;53.518;49.398;2024-01-27T13:04:22;-15.41;118.99
67186;HTU21D;54116;53.518;49.398;2024-01-27T13:06:48;-15.34;118.99
67186;HTU21D;54116;53.518;49.398;2024-01-27T13:09:14;-15.29;118.99
67186;HTU21D;54116;53.518;49.398;2024-01-27T13:11:41;-15.41;118.99
67186;HTU21D;54116;53.518;49.398;2024-01-27T13:14:07;-15.43;118.99
67186;HTU21D;54116;53.518;49.398;2024-01-27T13:16:35;-15.34;118.99
67186;HTU21D;54116;53.518;49.398;2024-01-27T13:19:01;-14.93;118.99
67186;HTU21D;54116;53.518;49.398;2024-01-27T13:21:29;-15.32;118.99
67186;HTU21D;54116;53.518;49.398;2024-01-27T13:23:55;-15.53;118.99
67186;HTU21D;54116;53.518;49.398;2024-01-27T13:26:22;-15.51;118.99
67186;HTU21D;54116;53.518;49.398;2024-01-27T13:28:48;-15.64;118.99
67186;HTU21D;54116;53.518;49.398;2024-01-27T13:31:14;-15.62;118.99
67186;HTU21D;54116;53.518;49.398;2024-01-27T13:33:41;-15.30;118.99
67186;HTU21D;54116;53.518;49.398;2024-01-27T13:36:07;-15.37;118.99
67186;HTU21D;54116;53.518;49.398;2024-01-27T13:38:33;-15.19;118.99
67186;HTU21D;54116;53.518;49.398;2024-01-27T13:41:01;-15.20;118.99
67186;HTU21D;54116;53.518;49.398;2024-01-27T13:43:27;-15.54;118.99
67186;HTU21D;54116;53.518;49.398;2024-01-27T13:45:53;-15.98;118.99
67186;HTU21D;54116;53.518;49.398;2024-01-27T13:48:21;-16.14;118.99
67186;HTU21D;54116;53.518;49.398;2024-01-27T13:50:47;-15.65;118.99
67186;HTU21D;54116;53.518;49.398;2024-01-27T13:53:13;-16.08;118.99
67186;HTU21D;54116;53.518;49.398;2024-01-27T13:55:40;-15.85;118.99
67186;HTU21D;54116;53.518;49.398;2024-01-27T13:58:08;-15.30;118.99
67186;HTU21D;54116;53.518;49.398;2024-01-27T14:00:35;-15.84;118.99
67186;HTU21D;54116;53.518;49.398;2024-01-27T14:03:01;-15.65;118.99
67186;HTU21D;54116;53.518;49.398;2024-01-27T14:05:28;-15.73;118.99
67186;HTU21D;54116;53.518;49.398;2024-01-27T14:07:56;-15.93;118.99
67186;HTU21D;54116;53.518;49.398;2024-01-27T14:10:22;-15.37;118.99
67186;HTU21D;54116;53.518;49.398;2024-01-27T14:12:51;-15.85;118.99
67186;HTU21D;54116;53.518;49.398;2024-01-27T14:15:18;-15.51;118.99
67186;HTU21D;54116;53.518;49.398;2024-01-27T14:17:47;-15.76;118.99
67186;HTU21D;54116;53.518;49.398;2024-01-27T14:20:13;-15.73;118.99
67186;HTU21D;54116;53.518;49.398;2024-01-27T14:22:39;-15.56;118.99
67186;HTU21D;54116;53.518;49.398;2024-01-27T14:25:06;-15.78;118.99
67186;HTU21D;54116;53.518;49.398;2024-01-27T14:27:34;-15.95;118.99
67186;HTU21D;54116;53.518;49.398;2024-01-27T14:30:01;-15.93;118.99
67186;HTU21D;54116;53.518;49.398;2024-01-27T14:32:27;-15.69;118.99
67186;HTU21D;54116;53.518;49.398;2024-01-27T14:34:53;-15.85;118.99